sensor_id;sensor_type;location;lat;lon;timestamp;temperature;humidity
75010;DHT22;63564;46.840;18.336;2024-02-21T00:01:17;7.97;80.54
75010;DHT22;63564;46.840;18.336;2024-02-21T00:04:18;7.98;80.51
75010;DHT22;63564;46.840;18.336;2024-02-21T00:07:18;7.98;80.48
75010;DHT22;63564;46.840;18.336;2024-02-21T00:10:19;7.98;80.08
75010;DHT22;63564;46.840;18.336;2024-02-21T00:13:19;7.91;80.23
75010;DHT22;63564;46.840;18.336;2024-02-21T00:16:19;7.91;80.07
75010;DHT22;63564;46.840;18.336;2024-02-21T00:19:20;7.82;80.23
75010;DHT22;63564;46.840;18.336;2024-02-21T00:22:21;7.73;80.63
75010;DHT22;63564;46.840;18.336;2024-02-21T00:25:21;7.75;80.52
75010;DHT22;63564;46.840;18.336;2024-02-21T00:28:21;7.75;80.53
75010;DHT22;63564;46.840;18.336;2024-02-21T00:31:22;7.68;80.71
75010;DHT22;63564;46.840;18.336;2024-02-21T00:34:22;7.56;81.30
75010;DHT22;63564;46.840;18.336;2024-02-21T00:37:22;7.59;81.24
75010;DHT22;63564;46.840;18.336;2024-02-21T00:40:23;7.41;81.90
75010;DHT22;63564;46.840;18.336;2024-02-21T00:43:23;7.31;81.85
75010;DHT22;63564;46.840;18.336;2024-02-21T00:46:24;7.31;81.80
75010;DHT22;63564;46.840;18.336;2024-02-21T00:49:24;7.39;81.26
75010;DHT22;63564;46.840;18.336;2024-02-21T00:52:25;7.39;81.04
75010;DHT22;63564;46.840;18.336;2024-02-21T00:55:25;7.44;80.81
75010;DHT22;63564;46.840;18.336;2024-02-21T00:58:25;7.39;80.61
75010;DHT22;63564;46.840;18.336;2024-02-21T01:01:26;7.44;80.61
75010;DHT22;63564;46.840;18.336;2024-02-21T01:04:26;7.55;80.12
75010;DHT22;63564;46.840;18.336;2024-02-21T01:07:27;7.58;80.08
75010;DHT22;63564;46.840;18.336;2024-02-21T01:10:27;7.41;80.85
75010;DHT22;63564;46.840;18.336;2024-02-21T01:13:27;7.30;81.28
75010;DHT22;63564;46.840;18.336;2024-02-21T01:16:28;7.31;81.23
75010;DHT22;63564;46.840;18.336;2024-02-21T01:19:28;7.15;82.08
75010;DHT22;63564;46.840;18.336;2024-02-21T01:22:29;7.17;82.22
75010;DHT22;63564;46.840;18.336;2024-02-21T01:25:29;7.21;82.17
75010;DHT22;63564;46.840;18.336;2024-02-21T01:28:30;7.15;82.51
75010;DHT22;63564;46.840;18.336;2024-02-21T01:31:33;7.11;82.53
75010;DHT22;63564;46.840;18.336;2024-02-21T01:34:36;7.14;82.57
75010;DHT22;63564;46.840;18.336;2024-02-21T01:37:37;7.14;82.85
75010;DHT22;63564;46.840;18.336;2024-02-21T01:40:37;7.15;82.78
75010;DHT22;63564;46.840;18.336;2024-02-21T01:43:38;7.05;83.06
75010;DHT22;63564;46.840;18.336;2024-02-21T01:46:38;7.03;83.43
75010;DHT22;63564;46.840;18.336;2024-02-21T01:49:40;6.97;83.71
75010;DHT22;63564;46.840;18.336;2024-02-21T01:52:42;6.96;83.75
75010;DHT22;63564;46.840;18.336;2024-02-21T01:55:47;6.99;83.82
75010;DHT22;63564;46.840;18.336;2024-02-21T01:58:48;6.96;84.07
75010;DHT22;63564;46.840;18.336;2024-02-21T02:01:51;6.84;84.85
75010;DHT22;63564;46.840;18.336;2024-02-21T02:04:52;6.91;84.54
75010;DHT22;63564;46.840;18.336;2024-02-21T02:07:52;6.93;84.51
75010;DHT22;63564;46.840;18.336;2024-02-21T02:10:53;6.90;84.86
75010;DHT22;63564;46.840;18.336;2024-02-21T02:13:53;6.91;84.95
75010;DHT22;63564;46.840;18.336;2024-02-21T02:16:54;6.87;85.16
75010;DHT22;63564;46.840;18.336;2024-02-21T02:19:55;6.77;85.75
75010;DHT22;63564;46.840;18.336;2024-02-21T02:22:55;6.79;85.45
75010;DHT22;63564;46.840;18.336;2024-02-21T02:25:55;6.75;85.71
75010;DHT22;63564;46.840;18.336;2024-02-21T02:28:56;6.72;85.80
75010;DHT22;63564;46.840;18.336;2024-02-21T02:31:56;6.65;86.26
75010;DHT22;63564;46.840;18.336;2024-02-21T02:34:57;6.68;85.29
75010;DHT22;63564;46.840;18.336;2024-02-21T02:37:57;6.73;85.10
75010;DHT22;63564;46.840;18.336;2024-02-21T02:40:58;6.73;85.09
75010;DHT22;63564;46.840;18.336;2024-02-21T02:43:58;6.79;84.24
75010;DHT22;63564;46.840;18.336;2024-02-21T02:46:59;6.83;84.30
75010;DHT22;63564;46.840;18.336;2024-02-21T02:49:59;6.97;83.23
75010;DHT22;63564;46.840;18.336;2024-02-21T02:52:59;7.14;82.29
75010;DHT22;63564;46.840;18.336;2024-02-21T02:56:00;7.17;82.07
75010;DHT22;63564;46.840;18.336;2024-02-21T02:59:00;7.27;81.97
75010;DHT22;63564;46.840;18.336;2024-02-21T03:02:01;7.30;81.67
75010;DHT22;63564;46.840;18.336;2024-02-21T03:05:14;7.32;81.43
75010;DHT22;63564;46.840;18.336;2024-02-21T03:08:15;7.31;81.67
75010;DHT22;63564;46.840;18.336;2024-02-21T03:11:15;7.34;81.06
75010;DHT22;63564;46.840;18.336;2024-02-21T03:14:15;7.34;81.64
75010;DHT22;63564;46.840;18.336;2024-02-21T03:17:16;7.34;81.55
75010;DHT22;63564;46.840;18.336;2024-02-21T03:20:16;7.34;81.74
75010;DHT22;63564;46.840;18.336;2024-02-21T03:23:17;7.36;81.23
75010;DHT22;63564;46.840;18.336;2024-02-21T03:26:17;7.38;81.23
75010;DHT22;63564;46.840;18.336;2024-02-21T03:29:17;7.39;81.31
75010;DHT22;63564;46.840;18.336;2024-02-21T03:32:18;7.45;81.14
75010;DHT22;63564;46.840;18.336;2024-02-21T03:35:18;7.45;80.72
75010;DHT22;63564;46.840;18.336;2024-02-21T03:38:19;7.48;80.53
75010;DHT22;63564;46.840;18.336;2024-02-21T03:41:19;7.52;80.82
75010;DHT22;63564;46.840;18.336;2024-02-21T03:44:19;7.54;79.75
75010;DHT22;63564;46.840;18.336;2024-02-21T03:47:20;7.51;80.20
75010;DHT22;63564;46.840;18.336;2024-02-21T03:50:20;7.54;80.22
75010;DHT22;63564;46.840;18.336;2024-02-21T03:53:20;7.58;80.23
75010;DHT22;63564;46.840;18.336;2024-02-21T03:56:21;7.42;80.82
75010;DHT22;63564;46.840;18.336;2024-02-21T03:59:22;7.48;80.95
75010;DHT22;63564;46.840;18.336;2024-02-21T04:02:22;7.08;82.36
75010;DHT22;63564;46.840;18.336;2024-02-21T04:05:23;7.07;82.62
75010;DHT22;63564;46.840;18.336;2024-02-21T04:08:23;7.11;82.67
75010;DHT22;63564;46.840;18.336;2024-02-21T04:11:23;7.11;82.62
75010;DHT22;63564;46.840;18.336;2024-02-21T04:14:24;6.83;83.62
75010;DHT22;63564;46.840;18.336;2024-02-21T04:17:25;6.97;83.74
75010;DHT22;63564;46.840;18.336;2024-02-21T04:20:25;6.93;83.60
75010;DHT22;63564;46.840;18.336;2024-02-21T04:23:25;6.77;83.97
75010;DHT22;63564;46.840;18.336;2024-02-21T04:26:26;6.86;83.91
75010;DHT22;63564;46.840;18.336;2024-02-21T04:29:26;6.87;83.72
75010;DHT22;63564;46.840;18.336;2024-02-21T04:32:28;6.99;83.59
75010;DHT22;63564;46.840;18.336;2024-02-21T04:35:28;6.84;83.93
75010;DHT22;63564;46.840;18.336;2024-02-21T04:38:28;6.79;84.38
75010;DHT22;63564;46.840;18.336;2024-02-21T04:41:29;6.87;83.81
75010;DHT22;63564;46.840;18.336;2024-02-21T04:44:29;6.84;83.88
75010;DHT22;63564;46.840;18.336;2024-02-21T04:47:29;6.86;83.92
75010;DHT22;63564;46.840;18.336;2024-02-21T04:50:30;6.73;84.48
75010;DHT22;63564;46.840;18.336;2024-02-21T04:53:30;6.63;84.95
75010;DHT22;63564;46.840;18.336;2024-02-21T04:56:30;6.53;85.30
75010;DHT22;63564;46.840;18.336;2024-02-21T04:59:31;6.39;86.13
75010;DHT22;63564;46.840;18.336;2024-02-21T05:02:31;6.31;86.44
75010;DHT22;63564;46.840;18.336;2024-02-21T05:05:32;6.29;86.47
75010;DHT22;63564;46.840;18.336;2024-02-21T05:08:32;6.39;86.21
75010;DHT22;63564;46.840;18.336;2024-02-21T05:11:33;6.50;85.35
75010;DHT22;63564;46.840;18.336;2024-02-21T05:14:33;6.57;85.00
75010;DHT22;63564;46.840;18.336;2024-02-21T05:17:34;6.66;84.88
75010;DHT22;63564;46.840;18.336;2024-02-21T05:20:34;6.75;84.21
75010;DHT22;63564;46.840;18.336;2024-02-21T05:23:34;6.82;83.86
75010;DHT22;63564;46.840;18.336;2024-02-21T05:26:35;6.90;83.29
75010;DHT22;63564;46.840;18.336;2024-02-21T05:29:35;7.00;83.13
75010;DHT22;63564;46.840;18.336;2024-02-21T05:32:35;7.05;82.42
75010;DHT22;63564;46.840;18.336;2024-02-21T05:35:36;7.10;82.59
75010;DHT22;63564;46.840;18.336;2024-02-21T05:38:37;7.11;82.42
75010;DHT22;63564;46.840;18.336;2024-02-21T05:41:38;7.10;82.76
75010;DHT22;63564;46.840;18.336;2024-02-21T05:44:38;7.00;83.43
75010;DHT22;63564;46.840;18.336;2024-02-21T05:47:38;6.87;84.08
75010;DHT22;63564;46.840;18.336;2024-02-21T05:50:39;6.82;84.27
75010;DHT22;63564;46.840;18.336;2024-02-21T05:53:40;6.80;84.30
75010;DHT22;63564;46.840;18.336;2024-02-21T05:56:44;6.82;84.10
75010;DHT22;63564;46.840;18.336;2024-02-21T05:59:45;6.83;83.73
75010;DHT22;63564;46.840;18.336;2024-02-21T06:02:45;6.87;84.06
75010;DHT22;63564;46.840;18.336;2024-02-21T06:05:45;6.89;83.62
75010;DHT22;63564;46.840;18.336;2024-02-21T06:08:46;6.96;83.13
75010;DHT22;63564;46.840;18.336;2024-02-21T06:11:46;6.94;83.14
75010;DHT22;63564;46.840;18.336;2024-02-21T06:14:48;7.05;82.34
75010;DHT22;63564;46.840;18.336;2024-02-21T06:17:52;7.03;82.67
75010;DHT22;63564;46.840;18.336;2024-02-21T06:20:53;7.05;83.16
75010;DHT22;63564;46.840;18.336;2024-02-21T06:23:53;7.07;83.28
75010;DHT22;63564;46.840;18.336;2024-02-21T06:26:53;6.93;83.95
75010;DHT22;63564;46.840;18.336;2024-02-21T06:29:54;7.03;83.59
75010;DHT22;63564;46.840;18.336;2024-02-21T06:32:54;7.05;83.40
75010;DHT22;63564;46.840;18.336;2024-02-21T06:35:59;7.08;83.57
75010;DHT22;63564;46.840;18.336;2024-02-21T06:38:59;7.04;83.62
75010;DHT22;63564;46.840;18.336;2024-02-21T06:42:00;7.04;84.17
75010;DHT22;63564;46.840;18.336;2024-02-21T06:45:00;7.03;83.75
75010;DHT22;63564;46.840;18.336;2024-02-21T06:48:01;7.08;84.57
75010;DHT22;63564;46.840;18.336;2024-02-21T06:51:02;7.08;83.76
75010;DHT22;63564;46.840;18.336;2024-02-21T06:54:03;7.08;83.94
75010;DHT22;63564;46.840;18.336;2024-02-21T06:57:03;7.15;83.46
75010;DHT22;63564;46.840;18.336;2024-02-21T07:00:04;7.21;83.38
75010;DHT22;63564;46.840;18.336;2024-02-21T07:03:08;7.31;82.24
75010;DHT22;63564;46.840;18.336;2024-02-21T07:06:08;7.36;82.07
75010;DHT22;63564;46.840;18.336;2024-02-21T07:09:09;7.44;82.30
75010;DHT22;63564;46.840;18.336;2024-02-21T07:12:09;7.58;82.25
75010;DHT22;63564;46.840;18.336;2024-02-21T07:15:09;7.85;80.97
75010;DHT22;63564;46.840;18.336;2024-02-21T07:18:10;7.89;80.61
75010;DHT22;63564;46.840;18.336;2024-02-21T07:21:10;8.17;79.13
75010;DHT22;63564;46.840;18.336;2024-02-21T07:24:10;8.13;79.54
75010;DHT22;63564;46.840;18.336;2024-02-21T07:27:14;8.18;79.42
75010;DHT22;63564;46.840;18.336;2024-02-21T07:30:15;8.34;78.79
75010;DHT22;63564;46.840;18.336;2024-02-21T07:33:15;8.38;79.22
75010;DHT22;63564;46.840;18.336;2024-02-21T07:36:27;8.51;78.05
75010;DHT22;63564;46.840;18.336;2024-02-21T07:39:28;8.56;77.67
75010;DHT22;63564;46.840;18.336;2024-02-21T07:42:28;8.80;76.95
75010;DHT22;63564;46.840;18.336;2024-02-21T07:45:28;8.80;76.49
75010;DHT22;63564;46.840;18.336;2024-02-21T07:48:29;8.55;77.46
75010;DHT22;63564;46.840;18.336;2024-02-21T07:51:29;8.72;77.44
75010;DHT22;63564;46.840;18.336;2024-02-21T07:54:29;8.82;77.63
75010;DHT22;63564;46.840;18.336;2024-02-21T07:57:30;8.94;76.50
75010;DHT22;63564;46.840;18.336;2024-02-21T08:00:30;9.03;76.43
75010;DHT22;63564;46.840;18.336;2024-02-21T08:03:31;9.26;76.44
75010;DHT22;63564;46.840;18.336;2024-02-21T08:06:31;9.47;74.62
75010;DHT22;63564;46.840;18.336;2024-02-21T08:09:31;9.72;74.58
75010;DHT22;63564;46.840;18.336;2024-02-21T08:12:32;9.83;73.61
75010;DHT22;63564;46.840;18.336;2024-02-21T08:15:32;9.96;73.57
75010;DHT22;63564;46.840;18.336;2024-02-21T08:18:33;10.03;73.30
75010;DHT22;63564;46.840;18.336;2024-02-21T08:21:36;10.10;73.71
75010;DHT22;63564;46.840;18.336;2024-02-21T08:24:37;10.24;73.25
75010;DHT22;63564;46.840;18.336;2024-02-21T08:27:38;10.20;72.44
75010;DHT22;63564;46.840;18.336;2024-02-21T08:30:38;10.29;72.74
75010;DHT22;63564;46.840;18.336;2024-02-21T08:33:38;10.10;72.31
75010;DHT22;63564;46.840;18.336;2024-02-21T08:36:39;10.07;72.22
75010;DHT22;63564;46.840;18.336;2024-02-21T08:39:40;10.20;71.04
75010;DHT22;63564;46.840;18.336;2024-02-21T08:42:40;10.18;70.93
75010;DHT22;63564;46.840;18.336;2024-02-21T08:45:40;10.18;70.90
75010;DHT22;63564;46.840;18.336;2024-02-21T08:48:41;10.21;70.28
75010;DHT22;63564;46.840;18.336;2024-02-21T08:51:41;10.25;69.78
75010;DHT22;63564;46.840;18.336;2024-02-21T08:54:44;10.34;69.70
75010;DHT22;63564;46.840;18.336;2024-02-21T08:57:45;10.40;69.35
75010;DHT22;63564;46.840;18.336;2024-02-21T09:00:45;10.40;69.40
75010;DHT22;63564;46.840;18.336;2024-02-21T09:03:45;10.58;69.01
75010;DHT22;63564;46.840;18.336;2024-02-21T09:06:46;10.55;68.07
75010;DHT22;63564;46.840;18.336;2024-02-21T09:09:47;10.57;68.09
75010;DHT22;63564;46.840;18.336;2024-02-21T09:12:47;10.64;68.02
75010;DHT22;63564;46.840;18.336;2024-02-21T09:15:47;10.67;68.58
75010;DHT22;63564;46.840;18.336;2024-02-21T09:18:48;10.48;68.35
75010;DHT22;63564;46.840;18.336;2024-02-21T09:21:49;10.75;68.05
75010;DHT22;63564;46.840;18.336;2024-02-21T09:24:49;11.28;66.66
75010;DHT22;63564;46.840;18.336;2024-02-21T09:27:50;11.88;65.73
75010;DHT22;63564;46.840;18.336;2024-02-21T09:30:52;12.11;63.78
75010;DHT22;63564;46.840;18.336;2024-02-21T09:33:52;12.89;63.31
75010;DHT22;63564;46.840;18.336;2024-02-21T09:36:52;12.78;60.68
75010;DHT22;63564;46.840;18.336;2024-02-21T09:39:53;12.84;61.53
75010;DHT22;63564;46.840;18.336;2024-02-21T09:43:02;12.71;61.61
75010;DHT22;63564;46.840;18.336;2024-02-21T09:46:07;12.41;62.91
75010;DHT22;63564;46.840;18.336;2024-02-21T09:52:19;11.99;63.88
75010;DHT22;63564;46.840;18.336;2024-02-21T09:55:21;11.89;63.70
75010;DHT22;63564;46.840;18.336;2024-02-21T09:58:22;11.88;63.74
75010;DHT22;63564;46.840;18.336;2024-02-21T10:01:24;12.41;62.16
75010;DHT22;63564;46.840;18.336;2024-02-21T10:04:24;13.01;60.22
75010;DHT22;63564;46.840;18.336;2024-02-21T10:07:24;12.41;60.76
75010;DHT22;63564;46.840;18.336;2024-02-21T10:10:26;12.06;63.00
75010;DHT22;63564;46.840;18.336;2024-02-21T10:13:29;12.19;62.04
75010;DHT22;63564;46.840;18.336;2024-02-21T10:16:29;12.03;62.13
75010;DHT22;63564;46.840;18.336;2024-02-21T10:19:29;11.99;62.56
75010;DHT22;63564;46.840;18.336;2024-02-21T10:22:30;11.86;63.21
75010;DHT22;63564;46.840;18.336;2024-02-21T10:25:36;11.94;62.40
75010;DHT22;63564;46.840;18.336;2024-02-21T10:28:41;11.86;62.39
75010;DHT22;63564;46.840;18.336;2024-02-21T10:31:42;12.01;62.04
75010;DHT22;63564;46.840;18.336;2024-02-21T10:34:43;12.06;61.98
75010;DHT22;63564;46.840;18.336;2024-02-21T10:37:43;11.91;61.68
75010;DHT22;63564;46.840;18.336;2024-02-21T10:40:46;11.86;61.30
75010;DHT22;63564;46.840;18.336;2024-02-21T10:43:53;12.05;61.66
75010;DHT22;63564;46.840;18.336;2024-02-21T10:46:55;12.29;60.41
75010;DHT22;63564;46.840;18.336;2024-02-21T10:50:03;12.50;59.24
75010;DHT22;63564;46.840;18.336;2024-02-21T10:56:22;13.64;56.86
75010;DHT22;63564;46.840;18.336;2024-02-21T10:59:26;13.77;56.30
75010;DHT22;63564;46.840;18.336;2024-02-21T11:02:29;13.71;55.24
75010;DHT22;63564;46.840;18.336;2024-02-21T11:05:32;13.95;56.24
75010;DHT22;63564;46.840;18.336;2024-02-21T11:08:33;13.88;54.84
75010;DHT22;63564;46.840;18.336;2024-02-21T11:11:40;13.75;56.82
75010;DHT22;63564;46.840;18.336;2024-02-21T11:14:41;13.32;56.43
75010;DHT22;63564;46.840;18.336;2024-02-21T11:17:53;13.39;56.95
75010;DHT22;63564;46.840;18.336;2024-02-21T11:20:54;13.60;56.49
75010;DHT22;63564;46.840;18.336;2024-02-21T11:23:57;13.62;55.86
75010;DHT22;63564;46.840;18.336;2024-02-21T11:27:16;13.62;56.50
75010;DHT22;63564;46.840;18.336;2024-02-21T11:30:26;13.53;55.32
75010;DHT22;63564;46.840;18.336;2024-02-21T11:33:27;13.18;55.96
75010;DHT22;63564;46.840;18.336;2024-02-21T11:36:27;12.57;58.25
75010;DHT22;63564;46.840;18.336;2024-02-21T11:39:28;12.83;57.33
75010;DHT22;63564;46.840;18.336;2024-02-21T11:42:29;12.95;57.69
75010;DHT22;63564;46.840;18.336;2024-02-21T11:45:30;13.01;56.37
75010;DHT22;63564;46.840;18.336;2024-02-21T11:48:32;12.89;56.38
75010;DHT22;63564;46.840;18.336;2024-02-21T11:51:34;13.04;54.01
75010;DHT22;63564;46.840;18.336;2024-02-21T11:54:34;12.85;53.80
75010;DHT22;63564;46.840;18.336;2024-02-21T11:57:35;12.99;55.09
75010;DHT22;63564;46.840;18.336;2024-02-21T12:00:41;13.09;53.42
75010;DHT22;63564;46.840;18.336;2024-02-21T12:03:42;12.71;53.73
75010;DHT22;63564;46.840;18.336;2024-02-21T12:06:49;12.80;54.01
75010;DHT22;63564;46.840;18.336;2024-02-21T12:09:50;12.81;53.93
75010;DHT22;63564;46.840;18.336;2024-02-21T12:12:51;13.06;53.52
75010;DHT22;63564;46.840;18.336;2024-02-21T12:19:03;13.74;53.23
75010;DHT22;63564;46.840;18.336;2024-02-21T12:22:06;14.15;50.62
75010;DHT22;63564;46.840;18.336;2024-02-21T12:25:19;14.55;50.50
75010;DHT22;63564;46.840;18.336;2024-02-21T12:28:19;14.24;50.77
75010;DHT22;63564;46.840;18.336;2024-02-21T12:31:22;14.83;50.01
75010;DHT22;63564;46.840;18.336;2024-02-21T12:34:23;14.53;50.71
75010;DHT22;63564;46.840;18.336;2024-02-21T12:37:25;14.70;48.82
75010;DHT22;63564;46.840;18.336;2024-02-21T12:40:25;15.34;48.04
75010;DHT22;63564;46.840;18.336;2024-02-21T12:43:26;15.85;45.86
75010;DHT22;63564;46.840;18.336;2024-02-21T12:46:27;15.31;47.12
75010;DHT22;63564;46.840;18.336;2024-02-21T12:49:27;14.75;48.05
75010;DHT22;63564;46.840;18.336;2024-02-21T12:52:29;14.46;49.53
75010;DHT22;63564;46.840;18.336;2024-02-21T12:55:30;14.56;49.11
75010;DHT22;63564;46.840;18.336;2024-02-21T12:58:30;14.33;49.56
75010;DHT22;63564;46.840;18.336;2024-02-21T13:01:31;13.70;50.64
75010;DHT22;63564;46.840;18.336;2024-02-21T13:04:32;14.08;50.61
75010;DHT22;63564;46.840;18.336;2024-02-21T13:07:32;13.88;50.75
75010;DHT22;63564;46.840;18.336;2024-02-21T13:10:33;13.98;50.25
75010;DHT22;63564;46.840;18.336;2024-02-21T13:13:34;14.59;49.03
75010;DHT22;63564;46.840;18.336;2024-02-21T13:16:34;15.07;47.42
75010;DHT22;63564;46.840;18.336;2024-02-21T13:19:39;15.91;46.58
75010;DHT22;63564;46.840;18.336;2024-02-21T13:22:39;16.27;45.60
75010;DHT22;63564;46.840;18.336;2024-02-21T13:25:40;16.17;45.28
75010;DHT22;63564;46.840;18.336;2024-02-21T13:28:40;16.07;45.87
75010;DHT22;63564;46.840;18.336;2024-02-21T13:31:40;16.38;44.46
75010;DHT22;63564;46.840;18.336;2024-02-21T13:34:41;16.97;43.42
75010;DHT22;63564;46.840;18.336;2024-02-21T13:37:43;16.06;44.54
75010;DHT22;63564;46.840;18.336;2024-02-21T13:40:43;16.06;45.55
75010;DHT22;63564;46.840;18.336;2024-02-21T13:43:45;15.62;45.64
75010;DHT22;63564;46.840;18.336;2024-02-21T13:46:46;15.08;45.91
75010;DHT22;63564;46.840;18.336;2024-02-21T13:49:48;14.91;45.66
75010;DHT22;63564;46.840;18.336;2024-02-21T13:52:48;14.90;46.26
75010;DHT22;63564;46.840;18.336;2024-02-21T13:55:49;14.65;46.50
75010;DHT22;63564;46.840;18.336;2024-02-21T13:58:50;14.45;46.82
75010;DHT22;63564;46.840;18.336;2024-02-21T14:01:50;14.59;47.38
75010;DHT22;63564;46.840;18.336;2024-02-21T14:04:50;14.88;46.15
75010;DHT22;63564;46.840;18.336;2024-02-21T14:07:51;14.77;46.01
75010;DHT22;63564;46.840;18.336;2024-02-21T14:10:53;13.44;47.92
75010;DHT22;63564;46.840;18.336;2024-02-21T14:13:55;13.33;48.64
75010;DHT22;63564;46.840;18.336;2024-02-21T14:16:58;14.07;47.17
75010;DHT22;63564;46.840;18.336;2024-02-21T14:19:59;14.00;47.21
75010;DHT22;63564;46.840;18.336;2024-02-21T14:22:59;14.24;47.87
75010;DHT22;63564;46.840;18.336;2024-02-21T14:26:00;14.50;47.77
75010;DHT22;63564;46.840;18.336;2024-02-21T14:29:00;14.45;46.76
75010;DHT22;63564;46.840;18.336;2024-02-21T14:32:01;14.60;46.22
75010;DHT22;63564;46.840;18.336;2024-02-21T14:35:01;14.24;46.41
75010;DHT22;63564;46.840;18.336;2024-02-21T14:38:01;13.90;46.72
75010;DHT22;63564;46.840;18.336;2024-02-21T14:41:02;13.60;47.51
75010;DHT22;63564;46.840;18.336;2024-02-21T14:44:02;13.38;47.66
75010;DHT22;63564;46.840;18.336;2024-02-21T14:47:03;13.15;48.12
75010;DHT22;63564;46.840;18.336;2024-02-21T14:50:04;13.01;48.96
75010;DHT22;63564;46.840;18.336;2024-02-21T14:53:05;12.88;49.34
75010;DHT22;63564;46.840;18.336;2024-02-21T14:56:05;12.87;49.71
75010;DHT22;63564;46.840;18.336;2024-02-21T14:59:12;12.63;50.79
75010;DHT22;63564;46.840;18.336;2024-02-21T15:02:13;12.65;49.82
75010;DHT22;63564;46.840;18.336;2024-02-21T15:05:13;12.76;50.61
75010;DHT22;63564;46.840;18.336;2024-02-21T15:08:14;12.65;50.47
75010;DHT22;63564;46.840;18.336;2024-02-21T15:11:17;12.74;50.98
75010;DHT22;63564;46.840;18.336;2024-02-21T15:14:18;12.71;50.89
75010;DHT22;63564;46.840;18.336;2024-02-21T15:17:18;12.54;51.32
75010;DHT22;63564;46.840;18.336;2024-02-21T15:20:19;12.67;50.94
75010;DHT22;63564;46.840;18.336;2024-02-21T15:23:19;12.57;51.19
75010;DHT22;63564;46.840;18.336;2024-02-21T15:26:20;12.51;51.86
75010;DHT22;63564;46.840;18.336;2024-02-21T15:29:21;12.44;51.82
75010;DHT22;63564;46.840;18.336;2024-02-21T15:32:23;12.33;53.17
75010;DHT22;63564;46.840;18.336;2024-02-21T15:35:24;12.16;54.77
75010;DHT22;63564;46.840;18.336;2024-02-21T15:38:24;12.09;55.37
75010;DHT22;63564;46.840;18.336;2024-02-21T15:41:26;11.94;55.68
75010;DHT22;63564;46.840;18.336;2024-02-21T15:44:26;11.94;55.91
75010;DHT22;63564;46.840;18.336;2024-02-21T15:47:27;11.81;55.93
75010;DHT22;63564;46.840;18.336;2024-02-21T15:50:27;11.65;56.62
75010;DHT22;63564;46.840;18.336;2024-02-21T15:53:29;11.79;56.06
75010;DHT22;63564;46.840;18.336;2024-02-21T16:46:35;10.45;62.06
75010;DHT22;63564;46.840;18.336;2024-02-21T16:49:36;10.44;62.50
75010;DHT22;63564;46.840;18.336;2024-02-21T16:52:36;10.33;63.70
75010;DHT22;63564;46.840;18.336;2024-02-21T16:55:37;10.24;63.58
75010;DHT22;63564;46.840;18.336;2024-02-21T16:58:38;10.16;64.25
75010;DHT22;63564;46.840;18.336;2024-02-21T17:01:39;10.23;63.77
75010;DHT22;63564;46.840;18.336;2024-02-21T17:04:41;10.12;64.01
75010;DHT22;63564;46.840;18.336;2024-02-21T17:07:41;10.23;63.97
75010;DHT22;63564;46.840;18.336;2024-02-21T17:10:42;10.18;63.94
75010;DHT22;63564;46.840;18.336;2024-02-21T17:13:43;9.99;65.10
75010;DHT22;63564;46.840;18.336;2024-02-21T17:16:44;9.87;65.37
75010;DHT22;63564;46.840;18.336;2024-02-21T17:19:44;10.00;64.95
75010;DHT22;63564;46.840;18.336;2024-02-21T17:22:45;10.00;65.08
75010;DHT22;63564;46.840;18.336;2024-02-21T17:25:45;10.02;64.93
75010;DHT22;63564;46.840;18.336;2024-02-21T17:28:48;9.81;65.81
75010;DHT22;63564;46.840;18.336;2024-02-21T17:31:49;9.74;65.96
75010;DHT22;63564;46.840;18.336;2024-02-21T17:34:49;9.72;65.79
75010;DHT22;63564;46.840;18.336;2024-02-21T17:37:50;9.82;65.39
75010;DHT22;63564;46.840;18.336;2024-02-21T17:40:50;9.85;65.07
75010;DHT22;63564;46.840;18.336;2024-02-21T17:43:51;9.85;65.62
75010;DHT22;63564;46.840;18.336;2024-02-21T17:46:52;9.92;65.35
75010;DHT22;63564;46.840;18.336;2024-02-21T17:49:53;9.78;65.42
75010;DHT22;63564;46.840;18.336;2024-02-21T17:52:53;9.81;65.83
75010;DHT22;63564;46.840;18.336;2024-02-21T17:55:57;9.82;65.85
75010;DHT22;63564;46.840;18.336;2024-02-21T17:58:58;9.69;66.41
75010;DHT22;63564;46.840;18.336;2024-02-21T18:01:58;9.63;65.73
75010;DHT22;63564;46.840;18.336;2024-02-21T18:05:00;9.62;66.42
75010;DHT22;63564;46.840;18.336;2024-02-21T18:08:01;9.58;66.23
75010;DHT22;63564;46.840;18.336;2024-02-21T18:11:02;9.57;66.55
75010;DHT22;63564;46.840;18.336;2024-02-21T18:14:02;9.48;66.12
75010;DHT22;63564;46.840;18.336;2024-02-21T18:17:05;9.51;66.18
75010;DHT22;63564;46.840;18.336;2024-02-21T18:20:06;9.55;65.63
75010;DHT22;63564;46.840;18.336;2024-02-21T18:23:08;9.61;65.51
75010;DHT22;63564;46.840;18.336;2024-02-21T18:26:12;9.61;65.08
75010;DHT22;63564;46.840;18.336;2024-02-21T18:29:13;9.61;65.38
75010;DHT22;63564;46.840;18.336;2024-02-21T18:32:14;9.55;65.12
75010;DHT22;63564;46.840;18.336;2024-02-21T18:35:14;9.57;66.65
75010;DHT22;63564;46.840;18.336;2024-02-21T18:38:16;9.49;65.84
75010;DHT22;63564;46.840;18.336;2024-02-21T18:41:17;9.57;65.54
75010;DHT22;63564;46.840;18.336;2024-02-21T18:44:17;9.51;66.12
75010;DHT22;63564;46.840;18.336;2024-02-21T18:47:18;9.37;66.72
75010;DHT22;63564;46.840;18.336;2024-02-21T18:50:20;9.41;66.67
75010;DHT22;63564;46.840;18.336;2024-02-21T18:53:21;9.32;66.95
75010;DHT22;63564;46.840;18.336;2024-02-21T18:56:22;9.30;67.35
75010;DHT22;63564;46.840;18.336;2024-02-21T18:59:27;9.13;68.09
75010;DHT22;63564;46.840;18.336;2024-02-21T19:02:28;9.27;67.42
75010;DHT22;63564;46.840;18.336;2024-02-21T19:05:29;9.04;68.39
75010;DHT22;63564;46.840;18.336;2024-02-21T19:08:30;9.17;67.86
75010;DHT22;63564;46.840;18.336;2024-02-21T19:11:30;9.04;68.37
75010;DHT22;63564;46.840;18.336;2024-02-21T19:14:31;8.99;68.63
75010;DHT22;63564;46.840;18.336;2024-02-21T19:17:32;8.90;69.09
75010;DHT22;63564;46.840;18.336;2024-02-21T19:20:33;8.92;68.69
75010;DHT22;63564;46.840;18.336;2024-02-21T19:23:35;8.87;68.95
75010;DHT22;63564;46.840;18.336;2024-02-21T19:26:39;8.68;69.28
75010;DHT22;63564;46.840;18.336;2024-02-21T19:29:40;8.65;69.00
75010;DHT22;63564;46.840;18.336;2024-02-21T19:32:41;8.56;69.67
75010;DHT22;63564;46.840;18.336;2024-02-21T19:35:42;8.31;70.38
75010;DHT22;63564;46.840;18.336;2024-02-21T19:38:43;8.35;70.40
75010;DHT22;63564;46.840;18.336;2024-02-21T19:41:44;8.18;71.02
75010;DHT22;63564;46.840;18.336;2024-02-21T19:44:45;8.01;71.27
75010;DHT22;63564;46.840;18.336;2024-02-21T19:47:47;7.98;71.57
75010;DHT22;63564;46.840;18.336;2024-02-21T19:50:48;7.96;71.16
75010;DHT22;63564;46.840;18.336;2024-02-21T19:53:48;8.04;70.88
75010;DHT22;63564;46.840;18.336;2024-02-21T19:56:49;7.94;71.38